Terminal Aerodrome Forecast
Issued by NWS Portland, ME

Home | Current Version | Previous Version | Text Only | Print | Product List | Glossary On
Versions: 1 2 3 4 5 6 7 8 9 10 11 12 13 14 15 16 17 18 19
000
FTUS41 KGYX 280206 AAA
TAFCON
TAF AMD
KCON 280206Z 2802/2824 36003KT P6SM BKN070
     FM280700 VRB03KT 3SM -SHSN BR OVC025
     FM281200 34007KT 3/4SM -SHSN OVC009
     FM281500 33011G17KT 1 1/2SM -SHSN OVC015
     FM282100 32009KT P6SM OVC015=

USA.gov is the U.S. government's official web portal to all federal, state and local government web resources and services.